Time;durP1;ratioP1;P1;durP2;ratioP2;P2;SDS_P1;SDS_P2;PMS_P1;PMS_P2;Temp;Humidity;BMP_temperature;BMP_pressure;BME280_temperature;BME280_humidity;BME280_pressure;Samples;Min_cycle;Max_cycle;Signal;HPM_P1;HPM_P2
2022/05/24 00:01:32;;;;;;;7.05;3.00;;;15.20;99.90;;;;;;5069279;28;20266;-86
2022/05/24 00:04:04;;;;;;;6.68;3.17;;;15.20;99.90;;;;;;5071422;28;20196;-87
2022/05/24 00:06:35;;;;;;;6.70;2.97;;;15.30;99.90;;;;;;5070752;28;20196;-85
2022/05/24 00:09:06;;;;;;;6.25;2.97;;;15.30;99.90;;;;;;5068407;28;20250;-85
2022/05/24 00:11:37;;;;;;;8.27;2.90;;;15.30;99.90;;;;;;5072049;28;20189;-86
2022/05/24 00:14:07;;;;;;;7.90;3.70;;;15.40;99.90;;;;;;5069083;28;20250;-86
2022/05/24 00:16:38;;;;;;;6.65;3.22;;;15.40;99.90;;;;;;5068739;28;20648;-87
2022/05/24 00:19:12;;;;;;;4.53;2.80;;;15.40;99.90;;;;;;5071897;28;20203;-88
2022/05/24 00:21:42;;;;;;;5.45;2.97;;;15.50;99.90;;;;;;5071075;28;20220;-86
2022/05/24 00:24:13;;;;;;;5.20;2.80;;;15.50;99.90;;;;;;5072292;28;20608;-86
2022/05/24 00:26:44;;;;;;;4.60;2.75;;;15.50;99.90;;;;;;5070013;28;20205;-86
2022/05/24 00:29:15;;;;;;;5.80;2.67;;;15.50;99.90;;;;;;5071579;28;20188;-86
2022/05/24 00:31:47;;;;;;;4.70;2.20;;;15.50;99.90;;;;;;5072407;28;20632;-86
2022/05/24 00:34:19;;;;;;;3.70;2.55;;;15.50;99.90;;;;;;5071193;28;20584;-87
2022/05/24 00:36:51;;;;;;;5.57;2.30;;;15.60;99.90;;;;;;5070502;28;20692;-87
2022/05/24 00:39:21;;;;;;;3.67;1.92;;;15.60;99.90;;;;;;5071425;28;20201;-87
2022/05/24 00:41:58;;;;;;;3.10;1.83;;;15.70;99.90;;;;;;5071773;28;20282;-86
2022/05/24 00:44:32;;;;;;;7.60;2.15;;;15.70;99.90;;;;;;5070542;28;20531;-86
2022/05/24 00:47:06;;;;;;;3.97;2.08;;;15.70;99.90;;;;;;5070651;28;20287;-86
2022/05/24 00:49:42;;;;;;;4.28;2.08;;;15.80;99.90;;;;;;5068856;28;20258;-86
2022/05/24 00:52:19;;;;;;;2.53;1.92;;;15.80;99.90;;;;;;5065887;28;20246;-85
2022/05/24 00:54:49;;;;;;;4.68;1.70;;;15.80;99.90;;;;;;5069470;28;20254;-87
2022/05/24 00:57:29;;;;;;;3.97;1.65;;;16.00;99.90;;;;;;5071466;28;20246;-86
2022/05/24 01:00:06;;;;;;;7.47;1.77;;;16.00;99.90;;;;;;5070496;28;20204;-86
2022/05/24 01:02:37;;;;;;;5.25;1.50;;;16.10;99.90;;;;;;5068755;28;20249;-87
2022/05/24 01:05:13;;;;;;;5.15;1.63;;;16.10;99.90;;;;;;5066253;28;20276;-87
2022/05/24 01:07:44;;;;;;;5.72;1.65;;;16.20;99.90;;;;;;5071684;28;20667;-88
2022/05/24 01:10:18;;;;;;;3.20;1.77;;;16.20;99.90;;;;;;5072022;28;20193;-88
2022/05/24 01:12:54;;;;;;;4.60;1.70;;;16.40;99.90;;;;;;5067870;28;20192;-89
2022/05/24 01:15:25;;;;;;;6.43;1.85;;;16.40;99.90;;;;;;5072575;28;20207;-87
2022/05/24 01:17:58;;;;;;;5.60;1.52;;;16.60;99.90;;;;;;5069911;28;20236;-91
2022/05/24 01:20:31;;;;;;;5.25;1.50;;;16.50;99.90;;;;;;5066360;28;20212;-89
2022/05/24 01:23:28;;;;;;;3.78;1.40;;;16.60;99.90;;;;;;5071954;28;20706;-91
2022/05/24 01:26:06;;;;;;;4.45;1.50;;;16.70;99.90;;;;;;5070819;28;20280;-88
2022/05/24 01:28:43;;;;;;;2.78;1.33;;;16.70;99.90;;;;;;5072219;28;20196;-91
2022/05/24 01:31:14;;;;;;;3.30;1.25;;;16.80;99.90;;;;;;5068036;28;20196;-90
2022/05/24 01:36:36;;;;;;;3.05;1.05;;;16.90;99.90;;;;;;5072480;28;20227;-88
2022/05/24 01:39:09;;;;;;;1.70;0.80;;;17.00;99.90;;;;;;5065962;28;20201;-88
2022/05/24 01:41:44;;;;;;;3.15;1.00;;;17.00;99.90;;;;;;5073512;28;20771;-92
2022/05/24 01:44:21;;;;;;;2.53;0.80;;;17.10;99.90;;;;;;5070631;28;20200;-91
2022/05/24 01:46:52;;;;;;;2.78;0.73;;;17.20;99.90;;;;;;5072141;28;20184;-90
2022/05/24 01:49:26;;;;;;;2.95;0.65;;;17.10;99.90;;;;;;5071730;28;20200;-92
2022/05/24 01:52:02;;;;;;;1.65;0.52;;;17.10;99.90;;;;;;5069787;28;20614;-85
2022/05/24 01:54:35;;;;;;;2.35;0.50;;;17.00;99.90;;;;;;5069048;28;20195;-87
2022/05/24 01:57:11;;;;;;;3.00;0.60;;;17.00;99.90;;;;;;5069115;28;20247;-88
2022/05/24 01:59:46;;;;;;;2.30;0.50;;;16.90;99.90;;;;;;5069410;28;20193;-85
2022/05/24 02:02:18;;;;;;;1.85;0.45;;;16.80;99.90;;;;;;5070952;28;20246;-85
2022/05/24 02:04:49;;;;;;;2.63;0.47;;;16.70;99.90;;;;;;5072433;28;20185;-86
2022/05/24 02:07:21;;;;;;;1.45;0.52;;;16.70;99.90;;;;;;5071518;28;20193;-87
2022/05/24 02:09:54;;;;;;;3.85;0.50;;;16.70;99.90;;;;;;5070129;28;20189;-88
2022/05/24 02:12:27;;;;;;;1.85;0.50;;;16.60;99.90;;;;;;5071523;28;20238;-87
2022/05/24 02:15:04;;;;;;;1.05;0.50;;;16.60;99.90;;;;;;5070346;28;20697;-86
2022/05/24 02:17:40;;;;;;;4.95;0.50;;;16.50;99.90;;;;;;5068453;28;20270;-87
2022/05/24 02:20:16;;;;;;;3.40;0.50;;;16.50;99.90;;;;;;5069708;28;20623;-87
2022/05/24 02:22:47;;;;;;;1.42;0.50;;;16.40;99.90;;;;;;5069879;28;20213;-89
2022/05/24 02:25:21;;;;;;;2.13;0.63;;;16.40;99.90;;;;;;5073191;28;20189;-90
2022/05/24 02:27:53;;;;;;;1.13;0.63;;;16.30;99.90;;;;;;5071382;28;20271;-88
2022/05/24 02:30:29;;;;;;;1.90;0.60;;;16.20;99.90;;;;;;5074782;28;20196;-89
2022/05/24 02:33:00;;;;;;;1.98;0.50;;;16.10;99.90;;;;;;5074943;28;20207;-89
2022/05/24 02:35:31;;;;;;;2.63;0.65;;;16.10;99.90;;;;;;5072027;28;20196;-88
2022/05/24 02:38:01;;;;;;;3.75;0.73;;;16.20;99.90;;;;;;5073252;28;20220;-88
2022/05/24 02:43:19;;;;;;;2.78;0.82;;;15.90;99.90;;;;;;5074324;28;20192;-88
2022/05/24 02:45:51;;;;;;;2.20;0.60;;;15.90;99.90;;;;;;5074654;28;20195;-88
2022/05/24 02:48:22;;;;;;;3.53;0.80;;;15.90;99.90;;;;;;5074561;28;20656;-90
2022/05/24 02:50:53;;;;;;;2.45;0.50;;;15.90;99.90;;;;;;5075090;28;20196;-89
2022/05/24 02:53:23;;;;;;;2.90;0.55;;;15.80;99.90;;;;;;5074877;28;20193;-85
2022/05/24 02:55:54;;;;;;;3.20;0.70;;;15.80;99.90;;;;;;5074607;28;20667;-88
2022/05/24 02:58:25;;;;;;;2.55;0.70;;;15.80;99.90;;;;;;5073528;28;20234;-88
2022/05/24 03:00:58;;;;;;;1.95;0.55;;;15.70;99.90;;;;;;5073971;28;20188;-91
2022/05/24 03:03:28;;;;;;;3.78;0.70;;;15.70;99.90;;;;;;5074539;28;20254;-89
2022/05/24 03:05:59;;;;;;;2.53;0.80;;;15.70;99.90;;;;;;5071835;28;20231;-88
2022/05/24 03:11:16;;;;;;;2.97;0.90;;;15.70;99.90;;;;;;5074018;28;20203;-89
2022/05/24 03:16:35;;;;;;;2.53;0.93;;;15.70;99.90;;;;;;5074353;28;20208;-89
2022/05/24 03:19:05;;;;;;;1.23;0.90;;;15.80;99.90;;;;;;5071147;28;20189;-88
2022/05/24 03:21:36;;;;;;;2.67;0.80;;;15.70;99.90;;;;;;5072786;28;20698;-90
2022/05/24 03:24:07;;;;;;;2.65;0.80;;;15.70;99.90;;;;;;5074790;28;20189;-89
2022/05/24 03:26:38;;;;;;;2.70;0.90;;;15.70;99.90;;;;;;5066799;28;20238;-90
2022/05/24 03:29:09;;;;;;;2.53;0.80;;;15.70;99.90;;;;;;5070044;28;20185;-91
2022/05/24 03:31:42;;;;;;;2.72;0.90;;;15.70;99.90;;;;;;5073185;28;20181;-90
2022/05/24 03:34:12;;;;;;;1.13;0.80;;;15.70;99.90;;;;;;5074920;28;20223;-91
2022/05/24 03:36:43;;;;;;;1.45;0.65;;;15.70;99.90;;;;;;5073059;28;20291;-90
2022/05/24 03:39:13;;;;;;;3.25;0.50;;;15.80;99.90;;;;;;5072844;28;20645;-87
2022/05/24 03:41:46;;;;;;;1.73;0.43;;;15.90;99.90;;;;;;5067009;28;20220;-89
2022/05/24 03:44:16;;;;;;;2.60;0.43;;;16.00;99.90;;;;;;5074774;28;20191;-88
2022/05/24 03:46:49;;;;;;;1.15;0.55;;;16.10;99.90;;;;;;5073420;28;20189;-90
2022/05/24 03:49:19;;;;;;;2.42;0.60;;;16.10;99.90;;;;;;5074362;28;20238;-90
2022/05/24 03:51:50;;;;;;;0.95;0.47;;;16.20;99.90;;;;;;5074125;28;20231;-87
2022/05/24 03:54:21;;;;;;;2.90;0.60;;;16.30;99.90;;;;;;5073652;28;20196;-88
2022/05/24 03:59:39;;;;;;;2.20;0.70;;;16.30;99.90;;;;;;5072521;28;20192;-90
2022/05/24 04:02:11;;;;;;;2.67;0.73;;;16.30;99.90;;;;;;5073071;28;20217;-88
2022/05/24 04:04:42;;;;;;;1.40;0.80;;;16.30;99.90;;;;;;5072841;28;20197;-90
2022/05/24 04:07:13;;;;;;;1.42;0.80;;;16.30;99.90;;;;;;5072646;28;20272;-88
2022/05/24 04:09:43;;;;;;;2.47;0.85;;;16.50;99.90;;;;;;5071961;28;20274;-89
2022/05/24 04:12:14;;;;;;;1.33;0.90;;;16.60;99.90;;;;;;5069372;28;20205;-88
2022/05/24 04:14:45;;;;;;;1.88;1.20;;;16.60;99.90;;;;;;5071859;28;20193;-91
2022/05/24 04:17:17;;;;;;;1.92;1.10;;;16.70;99.90;;;;;;5074177;28;20225;-90
2022/05/24 04:19:48;;;;;;;2.72;1.13;;;16.90;99.90;;;;;;5073574;28;20250;-90
2022/05/24 04:22:19;;;;;;;1.63;0.90;;;16.90;99.90;;;;;;5073104;28;20217;-87
2022/05/24 04:24:50;;;;;;;3.92;0.93;;;17.00;99.90;;;;;;5075933;28;20204;-86
2022/05/24 04:27:20;;;;;;;3.70;1.10;;;17.10;99.90;;;;;;5074975;28;20192;-89
2022/05/24 04:29:52;;;;;;;4.30;1.20;;;17.20;99.90;;;;;;5076509;28;20193;-91
2022/05/24 04:32:25;;;;;;;6.10;1.25;;;17.40;99.90;;;;;;5073781;28;20196;-86
2022/05/24 04:34:56;;;;;;;2.17;1.15;;;17.40;99.90;;;;;;5073453;28;20193;-89
2022/05/24 04:37:26;;;;;;;4.45;1.20;;;17.40;99.90;;;;;;5072488;28;20589;-86
2022/05/24 04:39:57;;;;;;;3.03;1.10;;;17.40;99.90;;;;;;5066067;28;20193;-86
2022/05/24 04:42:26;;;;;;;2.40;1.15;;;17.40;99.90;;;;;;5072540;28;20205;-85
2022/05/24 04:44:58;;;;;;;5.00;1.08;;;17.50;99.90;;;;;;5072205;28;20205;-84
2022/05/24 04:47:32;;;;;;;4.00;0.95;;;17.50;99.90;;;;;;5072044;28;20258;-85
2022/05/24 04:50:05;;;;;;;3.45;1.10;;;17.50;99.90;;;;;;5069049;28;20247;-84
2022/05/24 04:52:42;;;;;;;2.72;1.20;;;17.40;99.90;;;;;;5069350;28;20185;-84
2022/05/24 04:55:14;;;;;;;3.67;0.90;;;17.30;99.90;;;;;;5073194;28;20589;-86
2022/05/24 04:57:45;;;;;;;2.65;0.90;;;17.30;99.90;;;;;;5070292;28;20197;-84
2022/05/24 05:00:16;;;;;;;2.47;0.85;;;17.20;99.90;;;;;;5072020;28;20719;-87
2022/05/24 05:02:49;;;;;;;2.10;1.00;;;17.20;99.90;;;;;;5073237;28;20701;-89
2022/05/24 05:05:20;;;;;;;3.40;0.80;;;17.10;99.90;;;;;;5074198;28;20657;-87
2022/05/24 05:07:51;;;;;;;2.72;0.63;;;17.10;99.90;;;;;;5071990;28;20188;-85
2022/05/24 05:10:22;;;;;;;2.60;0.60;;;17.10;99.90;;;;;;5066647;28;20269;-86
2022/05/24 05:12:52;;;;;;;2.38;0.68;;;17.10;99.90;;;;;;5065862;28;20204;-86
2022/05/24 05:15:23;;;;;;;3.72;0.70;;;17.10;99.90;;;;;;5071729;28;20199;-86
2022/05/24 05:17:59;;;;;;;3.90;0.65;;;17.00;99.90;;;;;;5070062;28;20270;-87
2022/05/24 05:20:29;;;;;;;1.40;0.60;;;17.00;99.90;;;;;;5072989;28;20189;-88
2022/05/24 05:23:00;;;;;;;7.53;0.88;;;17.00;99.90;;;;;;5070710;28;20224;-85
2022/05/24 05:25:31;;;;;;;2.85;0.80;;;17.00;99.90;;;;;;5071487;28;20310;-85
2022/05/24 05:28:02;;;;;;;1.38;0.60;;;17.00;99.90;;;;;;5071668;28;20664;-87
2022/05/24 05:33:22;;;;;;;1.50;0.60;;;17.00;99.90;;;;;;5075268;28;20192;-86
2022/05/24 05:35:53;;;;;;;2.85;0.60;;;17.00;99.90;;;;;;5075615;28;20716;-88
2022/05/24 05:38:24;;;;;;;1.48;0.52;;;17.00;99.90;;;;;;5068690;28;20192;-87
2022/05/24 05:40:56;;;;;;;2.42;0.50;;;17.00;99.90;;;;;;5070983;28;20197;-86
2022/05/24 05:43:27;;;;;;;1.33;0.60;;;17.00;99.90;;;;;;5069698;28;20228;-88
2022/05/24 05:45:58;;;;;;;1.88;0.30;;;17.10;99.90;;;;;;5068798;28;20212;-87
2022/05/24 05:48:30;;;;;;;0.75;0.20;;;17.00;99.90;;;;;;5074212;28;20197;-83
2022/05/24 05:51:01;;;;;;;1.00;0.30;;;17.00;99.90;;;;;;5070430;28;20189;-85
2022/05/24 05:53:32;;;;;;;0.90;0.30;;;17.00;99.90;;;;;;5071723;28;20197;-87
2022/05/24 05:56:02;;;;;;;3.85;1.98;;;17.00;99.90;;;;;;5066293;28;20208;-80
2022/05/24 05:58:33;;;;;;;7.60;4.25;;;16.80;99.90;;;;;;5071383;28;20181;-81
2022/05/24 06:01:04;;;;;;;16.83;10.60;;;16.80;99.90;;;;;;5069827;28;20204;-86
2022/05/24 06:03:37;;;;;;;6.40;3.72;;;16.80;99.90;;;;;;5070446;28;20296;-82
2022/05/24 06:06:08;;;;;;;13.95;8.07;;;16.80;99.90;;;;;;5071951;28;20242;-84
2022/05/24 06:08:38;;;;;;;5.10;3.22;;;16.70;99.90;;;;;;5073447;28;20193;-86
2022/05/24 06:11:09;;;;;;;7.75;5.10;;;16.70;99.90;;;;;;5073959;28;20189;-81
2022/05/24 06:13:40;;;;;;;8.10;4.97;;;16.70;99.90;;;;;;5071833;28;20197;-82
2022/05/24 06:16:10;;;;;;;5.82;3.10;;;16.70;99.90;;;;;;5067405;28;20193;-84
2022/05/24 06:18:43;;;;;;;1.60;1.00;;;16.70;99.90;;;;;;5072789;28;20697;-87
2022/05/24 06:21:14;;;;;;;0.95;0.50;;;16.70;99.90;;;;;;5073626;28;20196;-84
2022/05/24 06:23:46;;;;;;;0.80;0.45;;;16.60;99.90;;;;;;5069606;28;20225;-84
2022/05/24 06:26:18;;;;;;;1.23;0.60;;;16.60;99.90;;;;;;5073276;28;20197;-85
2022/05/24 06:28:50;;;;;;;2.28;0.68;;;16.60;99.90;;;;;;5072246;28;20236;-86
2022/05/24 06:31:20;;;;;;;2.03;1.08;;;16.50;99.90;;;;;;5070650;28;20246;-85
2022/05/24 06:33:53;;;;;;;2.20;0.90;;;16.50;99.90;;;;;;5073085;28;20204;-86
2022/05/24 06:36:23;;;;;;;2.42;0.77;;;16.50;99.90;;;;;;5071572;28;20217;-86
2022/05/24 06:38:54;;;;;;;2.28;0.55;;;16.40;99.90;;;;;;5071910;28;20216;-85
2022/05/24 06:41:25;;;;;;;1.42;0.60;;;16.40;99.90;;;;;;5070420;28;20197;-86
2022/05/24 06:43:55;;;;;;;2.83;0.60;;;16.30;99.90;;;;;;5072462;28;20219;-85
2022/05/24 06:46:26;;;;;;;0.80;0.35;;;16.30;99.90;;;;;;5068834;28;20250;-85
2022/05/24 06:49:00;;;;;;;2.97;0.80;;;16.20;99.90;;;;;;5067922;28;20300;-87
2022/05/24 06:51:30;;;;;;;1.50;0.60;;;16.10;99.90;;;;;;5070158;28;20197;-88
2022/05/24 06:54:01;;;;;;;2.40;0.57;;;16.00;99.90;;;;;;5072519;28;20664;-87
2022/05/24 06:56:32;;;;;;;1.60;0.50;;;15.90;99.90;;;;;;5069854;28;20212;-87
2022/05/24 07:04:44;;;;;;;2.88;0.90;;;15.70;99.90;;;;;;5064003;28;20201;-89
2022/05/24 07:07:15;;;;;;;1.25;0.52;;;15.50;99.90;;;;;;5068547;28;20202;-85
2022/05/24 07:09:46;;;;;;;2.88;0.57;;;15.50;99.90;;;;;;5070031;28;20233;-84
2022/05/24 07:12:19;;;;;;;1.25;0.70;;;15.40;99.90;;;;;;5072407;28;20258;-85
2022/05/24 07:14:50;;;;;;;1.13;0.60;;;15.30;99.90;;;;;;5071341;28;20333;-85
2022/05/24 07:17:21;;;;;;;2.10;0.40;;;15.30;99.90;;;;;;5064288;28;20331;-85
2022/05/24 07:19:54;;;;;;;2.05;0.70;;;15.20;99.90;;;;;;5076069;28;20247;-84
2022/05/24 07:22:25;;;;;;;2.08;0.63;;;15.20;99.90;;;;;;5073055;28;20209;-83
2022/05/24 07:24:55;;;;;;;3.95;0.80;;;15.10;99.90;;;;;;5071963;28;20262;-85
2022/05/24 07:27:26;;;;;;;1.95;0.80;;;15.10;99.90;;;;;;5073245;28;20181;-84
2022/05/24 07:29:57;;;;;;;2.58;0.95;;;15.10;99.90;;;;;;5070160;28;20648;-85
2022/05/24 07:32:27;;;;;;;2.55;1.10;;;15.00;99.90;;;;;;5073779;28;20250;-84
2022/05/24 07:35:00;;;;;;;1.55;0.90;;;15.00;99.90;;;;;;5073366;28;20189;-83
2022/05/24 07:37:31;;;;;;;2.13;1.00;;;15.00;99.90;;;;;;5070835;28;20283;-83
2022/05/24 07:45:52;;;;;;;3.03;1.13;;;14.90;99.90;;;;;;5063143;28;20235;-85
2022/05/24 07:48:23;;;;;;;2.33;1.33;;;14.90;99.90;;;;;;5070333;28;20204;-84
2022/05/24 07:50:56;;;;;;;2.72;1.40;;;14.80;99.90;;;;;;5066319;28;20200;-83
2022/05/24 07:53:26;;;;;;;2.60;1.10;;;14.80;99.90;;;;;;5071584;28;20200;-84
2022/05/24 07:55:58;;;;;;;1.48;0.80;;;14.80;99.90;;;;;;5073765;28;20197;-84
2022/05/24 07:58:30;;;;;;;2.65;1.00;;;14.70;99.90;;;;;;5072840;28;20197;-85
2022/05/24 08:01:01;;;;;;;3.92;1.10;;;14.70;99.90;;;;;;5073330;28;20280;-84
2022/05/24 08:03:32;;;;;;;2.17;1.30;;;14.70;99.90;;;;;;5072844;28;20217;-84
2022/05/24 08:06:04;;;;;;;3.65;1.25;;;14.70;99.90;;;;;;5073794;28;20192;-84
2022/05/24 08:08:35;;;;;;;3.65;1.80;;;14.60;99.90;;;;;;5072148;28;20193;-84
2022/05/24 08:11:06;;;;;;;3.40;1.60;;;14.60;99.90;;;;;;5070239;28;20197;-84
2022/05/24 08:13:37;;;;;;;3.22;1.67;;;14.50;99.90;;;;;;5070122;28;20710;-84
2022/05/24 08:16:07;;;;;;;3.47;1.60;;;14.60;99.90;;;;;;5067002;28;21301;-84
2022/05/24 08:18:38;;;;;;;3.28;1.85;;;14.60;99.90;;;;;;5070260;28;20225;-84
2022/05/24 08:21:11;;;;;;;5.55;1.75;;;14.50;99.90;;;;;;5070988;28;20200;-84
2022/05/24 08:23:41;;;;;;;3.88;2.10;;;14.50;99.90;;;;;;5071585;28;20273;-85
2022/05/24 08:26:12;;;;;;;3.42;2.10;;;14.40;99.90;;;;;;5071460;28;20201;-84
2022/05/24 08:28:43;;;;;;;5.50;1.98;;;14.40;99.90;;;;;;5071146;28;20726;-83
2022/05/24 08:31:14;;;;;;;3.47;2.10;;;14.40;99.90;;;;;;5070566;28;20282;-83
2022/05/24 08:33:45;;;;;;;2.97;1.95;;;14.40;99.90;;;;;;5067820;28;20223;-84
2022/05/24 08:36:19;;;;;;;5.50;2.05;;;14.30;99.90;;;;;;5069581;28;20221;-81
2022/05/24 08:38:50;;;;;;;4.43;2.10;;;14.40;99.90;;;;;;5071700;28;20220;-85
2022/05/24 08:41:28;;;;;;;3.00;1.90;;;14.30;99.90;;;;;;5071365;28;20557;-84
2022/05/24 08:49:57;;;;;;;3.78;1.95;;;14.40;99.90;;;;;;5065769;28;20215;-84
2022/05/24 08:52:36;;;;;;;3.72;1.90;;;14.40;99.90;;;;;;5071141;28;20197;-84
2022/05/24 08:55:09;;;;;;;4.18;2.00;;;14.40;99.90;;;;;;5067966;28;20273;-85
2022/05/24 08:57:46;;;;;;;5.32;2.13;;;14.40;99.90;;;;;;5066267;28;20189;-86
2022/05/24 09:00:21;;;;;;;6.20;2.50;;;14.40;99.90;;;;;;5065932;28;20189;-85
2022/05/24 09:02:52;;;;;;;5.13;2.47;;;14.40;99.90;;;;;;5069826;28;20212;-85
2022/05/24 09:05:26;;;;;;;5.95;2.42;;;14.40;99.90;;;;;;5066537;28;20197;-84
2022/05/24 09:08:12;;;;;;;5.55;2.40;;;14.40;99.90;;;;;;5069150;28;20582;-85
2022/05/24 09:10:49;;;;;;;6.75;2.00;;;14.50;99.90;;;;;;5069449;28;20697;-86
2022/05/24 09:13:42;;;;;;;5.20;2.50;;;14.50;99.90;;;;;;5071133;28;20541;-83
2022/05/24 09:16:14;;;;;;;5.88;2.47;;;14.50;99.90;;;;;;5070057;28;20193;-84
2022/05/24 09:18:54;;;;;;;6.40;2.55;;;14.60;99.90;;;;;;5070683;28;20715;-87
2022/05/24 09:21:28;;;;;;;5.22;2.50;;;14.60;99.90;;;;;;5069386;28;20232;-85
2022/05/24 09:24:11;;;;;;;6.50;2.28;;;14.60;99.90;;;;;;5066599;28;20231;-84
2022/05/24 09:27:09;;;;;;;5.38;2.45;;;14.60;99.90;;;;;;5067613;28;20657;-83
2022/05/24 09:29:54;;;;;;;3.88;2.25;;;14.70;99.90;;;;;;5067060;28;20655;-86
2022/05/24 09:32:31;;;;;;;4.72;2.35;;;14.70;99.90;;;;;;5068080;28;20279;-84
2022/05/24 09:35:14;;;;;;;6.75;2.70;;;14.60;99.90;;;;;;5071762;28;20591;-85
2022/05/24 09:37:46;;;;;;;4.40;2.30;;;14.70;99.90;;;;;;5074126;28;20222;-84
2022/05/24 09:40:24;;;;;;;5.97;2.47;;;14.60;99.90;;;;;;5073211;28;20192;-85
2022/05/24 09:42:55;;;;;;;4.72;2.50;;;14.60;99.90;;;;;;5073988;28;20201;-84
2022/05/24 09:45:36;;;;;;;7.43;2.53;;;14.70;99.90;;;;;;5072103;28;20651;-84
2022/05/24 09:48:24;;;;;;;5.00;2.60;;;14.70;99.90;;;;;;5071841;28;20220;-83
2022/05/24 09:50:56;;;;;;;5.07;3.10;;;14.70;99.90;;;;;;5073804;28;20219;-85
2022/05/24 09:53:30;;;;;;;6.55;2.97;;;14.60;99.90;;;;;;5073014;28;20282;-82
2022/05/24 09:56:06;;;;;;;5.03;3.10;;;14.60;99.90;;;;;;5071140;28;20189;-85
2022/05/24 09:58:39;;;;;;;6.43;3.15;;;14.70;99.90;;;;;;5071992;28;20327;-81
2022/05/24 10:01:11;;;;;;;7.05;3.42;;;14.70;99.90;;;;;;5072801;28;20588;-83
2022/05/24 10:03:45;;;;;;;6.93;4.03;;;14.60;99.90;;;;;;5072472;28;20213;-82
2022/05/24 10:06:24;;;;;;;10.00;4.32;;;14.60;99.90;;;;;;5071488;28;20201;-86
2022/05/24 10:08:56;;;;;;;6.22;4.10;;;14.60;99.90;;;;;;5073464;28;20197;-89
2022/05/24 10:11:37;;;;;;;10.00;5.00;;;14.60;99.90;;;;;;5074208;28;20208;-86
2022/05/24 10:14:30;;;;;;;10.23;5.53;;;14.60;99.90;;;;;;5073885;28;20203;-86
2022/05/24 10:17:05;;;;;;;11.35;5.63;;;14.60;99.90;;;;;;5071596;28;20696;-87
2022/05/24 10:19:49;;;;;;;12.02;5.85;;;14.70;99.90;;;;;;5072395;28;20201;-87
2022/05/24 10:22:31;;;;;;;9.27;5.07;;;14.60;99.90;;;;;;5072182;28;20200;-86
2022/05/24 10:25:10;;;;;;;7.57;5.30;;;14.60;99.90;;;;;;5072249;28;20680;-88
2022/05/24 10:27:52;;;;;;;9.60;5.10;;;14.70;99.90;;;;;;5072427;28;20254;-84
2022/05/24 10:30:31;;;;;;;12.63;5.78;;;14.60;99.90;;;;;;5072664;28;20200;-86
2022/05/24 10:39:05;;;;;;;8.05;5.10;;;14.70;99.90;;;;;;5073522;28;20188;-87
2022/05/24 10:41:46;;;;;;;8.48;5.40;;;14.70;99.90;;;;;;5068057;28;20201;-88
2022/05/24 10:44:25;;;;;;;9.38;5.10;;;14.70;99.90;;;;;;5069873;28;20217;-83
2022/05/24 10:47:04;;;;;;;10.35;5.60;;;14.70;99.90;;;;;;5066442;28;20193;-85
2022/05/24 10:49:42;;;;;;;9.63;5.30;;;14.70;99.90;;;;;;5072375;28;20656;-89
2022/05/24 10:52:19;;;;;;;11.10;5.72;;;14.70;99.90;;;;;;5067584;28;20592;-87
2022/05/24 10:54:57;;;;;;;10.48;5.13;;;14.70;99.90;;;;;;5072984;28;20204;-89
2022/05/24 10:57:32;;;;;;;12.60;5.40;;;14.70;99.90;;;;;;5072047;28;20200;-88
2022/05/24 11:00:13;;;;;;;9.77;5.28;;;14.60;99.90;;;;;;5070497;28;20196;-87
2022/05/24 11:02:50;;;;;;;9.30;5.05;;;14.60;99.90;;;;;;5071402;28;20280;-88
2022/05/24 11:05:26;;;;;;;9.82;5.32;;;14.60;99.90;;;;;;5073101;28;20246;-89
2022/05/24 11:08:02;;;;;;;10.50;5.43;;;14.50;99.90;;;;;;5072530;28;20200;-88
2022/05/24 11:10:37;;;;;;;9.48;5.43;;;14.40;99.90;;;;;;5072649;28;20200;-89
2022/05/24 11:13:13;;;;;;;10.27;5.47;;;14.40;99.90;;;;;;5070956;28;20196;-88
2022/05/24 11:15:51;;;;;;;10.70;5.85;;;14.40;99.90;;;;;;5071592;28;20196;-87
2022/05/24 11:18:24;;;;;;;11.32;5.60;;;14.40;99.90;;;;;;5073073;28;20221;-89
2022/05/24 11:20:58;;;;;;;10.90;5.93;;;14.30;99.90;;;;;;5073153;28;20189;-87
2022/05/24 11:23:32;;;;;;;10.52;6.43;;;14.30;99.90;;;;;;5071219;28;20217;-88
2022/05/24 11:26:11;;;;;;;12.32;6.43;;;14.30;99.90;;;;;;5072474;28;20193;-88
2022/05/24 11:28:47;;;;;;;10.88;5.80;;;14.20;99.90;;;;;;5068887;28;20656;-88
2022/05/24 11:31:31;;;;;;;10.80;6.13;;;14.20;99.90;;;;;;5071968;28;20279;-89
2022/05/24 11:34:04;;;;;;;13.60;6.47;;;14.20;99.90;;;;;;5069302;28;20568;-89
2022/05/24 11:36:43;;;;;;;9.88;5.88;;;14.10;99.90;;;;;;5072659;28;20206;-89
2022/05/24 11:39:27;;;;;;;10.70;6.45;;;14.10;99.90;;;;;;5067421;28;20652;-86
2022/05/24 11:42:43;;;;;;;12.23;5.88;;;14.10;99.90;;;;;;5067619;28;20212;-87
2022/05/24 11:45:52;;;;;;;10.68;5.88;;;14.10;99.90;;;;;;5068209;28;20231;-86
2022/05/24 11:48:24;;;;;;;10.20;5.57;;;14.10;99.90;;;;;;5065580;28;20242;-86
2022/05/24 11:50:55;;;;;;;9.55;6.05;;;14.10;99.90;;;;;;5072909;28;20710;-86
2022/05/24 11:53:43;;;;;;;9.55;5.32;;;14.10;99.90;;;;;;5072535;28;20189;-85
2022/05/24 11:56:21;;;;;;;17.38;9.70;;;14.10;99.90;;;;;;5070842;28;20715;-87
2022/05/24 11:58:55;;;;;;;21.30;12.35;;;14.10;99.90;;;;;;5071015;28;20573;-87
2022/05/24 12:01:47;;;;;;;21.80;12.93;;;14.10;99.90;;;;;;5068514;28;20193;-85
2022/05/24 12:10:49;;;;;;;12.10;6.35;;;14.10;99.90;;;;;;5062572;28;20234;-89
2022/05/24 12:13:54;;;;;;;9.20;5.50;;;14.00;99.90;;;;;;5071833;28;20181;-88
2022/05/24 12:16:47;;;;;;;10.88;5.63;;;14.00;99.90;;;;;;5071538;28;20205;-88
2022/05/24 12:19:48;;;;;;;9.73;5.63;;;14.00;99.90;;;;;;5070074;28;20759;-86
2022/05/24 12:22:20;;;;;;;9.73;5.70;;;14.00;99.90;;;;;;5063508;28;20199;-86
2022/05/24 12:24:59;;;;;;;12.13;6.40;;;13.80;99.90;;;;;;5071506;28;20570;-87
2022/05/24 12:27:56;;;;;;;10.40;5.28;;;13.70;99.90;;;;;;5070730;28;20263;-86
2022/05/24 12:30:44;;;;;;;10.73;5.18;;;13.70;99.90;;;;;;5070404;28;20200;-86
2022/05/24 12:33:43;;;;;;;9.95;6.00;;;13.60;99.90;;;;;;5067971;28;20192;-88
2022/05/24 12:36:28;;;;;;;10.07;5.80;;;13.60;99.90;;;;;;5066494;28;20200;-88
2022/05/24 12:39:03;;;;;;;10.23;5.72;;;13.50;99.90;;;;;;5072258;28;20192;-84
2022/05/24 12:41:36;;;;;;;10.38;5.78;;;13.50;99.90;;;;;;5067120;28;20200;-87
2022/05/24 12:44:14;;;;;;;9.57;5.30;;;13.50;99.90;;;;;;5065859;28;20275;-89
2022/05/24 12:46:49;;;;;;;10.13;5.95;;;13.50;99.90;;;;;;5068250;28;20209;-88
2022/05/24 12:49:23;;;;;;;13.25;5.97;;;13.50;99.90;;;;;;5071941;28;20557;-87
2022/05/24 12:52:04;;;;;;;8.80;6.10;;;13.40;99.90;;;;;;5069588;28;20673;-87
2022/05/24 12:54:36;;;;;;;12.02;5.90;;;13.30;99.90;;;;;;5070450;28;20205;-86
2022/05/24 12:57:09;;;;;;;10.10;6.05;;;13.40;99.90;;;;;;5070209;28;20294;-88
2022/05/24 12:59:42;;;;;;;8.85;5.90;;;13.40;99.90;;;;;;5071579;28;20200;-88
2022/05/24 13:02:35;;;;;;;10.30;5.90;;;13.40;99.90;;;;;;5069350;28;20200;-88
2022/05/24 13:05:16;;;;;;;8.88;5.75;;;13.40;99.90;;;;;;5069852;28;20299;-88
2022/05/24 13:07:57;;;;;;;10.35;5.28;;;13.40;99.90;;;;;;5070984;28;20307;-86
2022/05/24 13:10:30;;;;;;;14.55;6.20;;;13.30;99.90;;;;;;5067765;28;20262;-85
2022/05/24 13:13:02;;;;;;;10.23;6.38;;;13.20;99.90;;;;;;5070380;28;20225;-85
2022/05/24 13:15:37;;;;;;;12.77;6.22;;;13.20;99.90;;;;;;5069435;28;20225;-87
2022/05/24 13:18:13;;;;;;;10.00;5.90;;;13.10;99.90;;;;;;5067315;28;20231;-86
2022/05/24 13:20:49;;;;;;;8.77;5.68;;;13.10;99.90;;;;;;5070193;28;20289;-87
2022/05/24 13:23:28;;;;;;;10.18;5.65;;;13.10;99.90;;;;;;5071786;28;20201;-88
2022/05/24 13:26:00;;;;;;;10.55;5.32;;;13.20;99.90;;;;;;5071041;28;20225;-89
2022/05/24 13:28:43;;;;;;;12.45;6.00;;;13.10;99.90;;;;;;5071434;28;20596;-88
2022/05/24 13:34:13;;;;;;;11.23;6.07;;;13.20;99.90;;;;;;5070788;28;20671;-88
2022/05/24 13:36:47;;;;;;;10.10;5.75;;;13.20;99.90;;;;;;5071285;28;20642;-89
2022/05/24 13:39:24;;;;;;;9.57;5.60;;;13.30;99.90;;;;;;5070922;28;20653;-89
2022/05/24 13:42:02;;;;;;;8.65;5.85;;;13.30;99.90;;;;;;5071503;28;20617;-89
2022/05/24 13:44:34;;;;;;;11.80;5.95;;;13.30;99.90;;;;;;5070878;28;20274;-88
2022/05/24 13:47:07;;;;;;;11.65;6.10;;;13.30;99.90;;;;;;5065513;28;20243;-89
2022/05/24 13:49:45;;;;;;;10.52;6.78;;;13.30;99.90;;;;;;5067515;28;20193;-87
2022/05/24 13:52:27;;;;;;;12.13;6.68;;;13.20;99.90;;;;;;5068786;28;20295;-88
2022/05/24 13:55:19;;;;;;;10.13;6.40;;;13.10;99.90;;;;;;5068495;28;20197;-83
2022/05/24 13:57:55;;;;;;;11.20;6.70;;;13.00;99.90;;;;;;5070050;28;20295;-88
2022/05/24 14:00:43;;;;;;;9.70;6.25;;;13.00;99.90;;;;;;5070338;28;20197;-84
2022/05/24 14:03:26;;;;;;;10.90;6.05;;;12.90;99.90;;;;;;5071956;28;20201;-89
2022/05/24 14:06:13;;;;;;;11.48;6.65;;;13.00;99.90;;;;;;5072565;28;20231;-89
2022/05/24 14:08:46;;;;;;;10.57;6.15;;;13.00;99.90;;;;;;5073460;28;20288;-87
2022/05/24 14:11:24;;;;;;;10.35;6.18;;;13.10;99.90;;;;;;5071141;28;20201;-89
2022/05/24 14:13:55;;;;;;;13.13;6.63;;;13.10;99.90;;;;;;5067896;28;20636;-88